Aviation Digital Data Service (ADDS)

Output produced by TAFs form (0819 UTC 18 November 2017)
found at http://aviationweather.gov/adds/tafs/
 
ELLX 180750Z 27004KT 9999 FEW001 SCT027 00/M00 Q1023 NOSIG
TAF ELLX 180500Z 1806/1912 25007KT 8000 FEW002 
     PROB30 
     TEMPO 1806/1809 VRB03KT 0300 FZFG BKN001 
     BECMG 1817/1819 3000 BR SCT005 BKN007 
     PROB40 
     TEMPO 1821/1907 1200 -RADZ SCT002 BKN003